PRIVATE WETTERSTATION BILLIGHEIM-ALLFELD                       ZURCK
Wetterdaten: Mittwoch, 12.07.2017
Datum Zeit Temp. A. Temp. A. min Temp. A. max Feuchte A. Luftdruck Regen Wind Richtung Richtung Sonnenschein ET Solar Taupunkt Windchill Windben Empfang
12.07.2017 00:00 16,4 C 16,4 C 16,5 C 90 % 1012,9 hPa 0,2 l/m 0,0 km/h (0 Bft) N 0 0 min 0,000 mm 0 W/m 14,8 C 16,4 C 0,0 km/h (0 Bft) 98 %
12.07.2017 00:10 16,5 C 16,4 C 16,5 C 90 % 1012,9 hPa 0,0 l/m 0,0 km/h (0 Bft) N 0 0 min 0,000 mm 0 W/m 14,9 C 16,5 C 0,0 km/h (0 Bft) 98 %
12.07.2017 00:20 16,5 C 16,5 C 16,5 C 90 % 1013,0 hPa 0,0 l/m 0,0 km/h (0 Bft) N 0 0 min 0,000 mm 0 W/m 14,9 C 16,5 C 0,0 km/h (0 Bft) 98 %
12.07.2017 00:30 16,4 C 16,4 C 16,5 C 90 % 1012,9 hPa 0,0 l/m 0,0 km/h (0 Bft) N 0 0 min 0,000 mm 0 W/m 14,8 C 16,4 C 0,0 km/h (0 Bft) 98 %
12.07.2017 00:40 16,3 C 16,3 C 16,5 C 90 % 1012,8 hPa 0,0 l/m 0,0 km/h (0 Bft) N 0 0 min 0,000 mm 0 W/m 14,7 C 16,3 C 0,0 km/h (0 Bft) 97 %
12.07.2017 00:50 16,2 C 16,2 C 16,3 C 90 % 1012,9 hPa 0,0 l/m 0,0 km/h (0 Bft) N 0 0 min 0,000 mm 0 W/m 14,6 C 16,2 C 0,0 km/h (0 Bft) 98 %
12.07.2017 01:00 16,1 C 16,1 C 16,2 C 91 % 1012,9 hPa 0,0 l/m 0,0 km/h (0 Bft) S-SO 157 0 min 0,000 mm 0 W/m 14,6 C 16,1 C 4,8 km/h (1 Bft) 98 %
12.07.2017 01:10 16,0 C 16,0 C 16,1 C 90 % 1012,8 hPa 0,0 l/m 0,0 km/h (0 Bft) N 0 0 min 0,000 mm 0 W/m 14,4 C 16,0 C 0,0 km/h (0 Bft) 97 %
12.07.2017 01:20 16,0 C 16,0 C 16,0 C 91 % 1012,7 hPa 0,0 l/m 0,0 km/h (0 Bft) N 0 0 min 0,000 mm 0 W/m 14,5 C 16,0 C 0,0 km/h (0 Bft) 97 %
12.07.2017 01:30 16,0 C 16,0 C 16,0 C 91 % 1012,5 hPa 0,0 l/m 0,0 km/h (0 Bft) N 0 0 min 0,000 mm 0 W/m 14,5 C 16,0 C 0,0 km/h (0 Bft) 97 %
12.07.2017 01:40 16,0 C 16,0 C 16,1 C 91 % 1012,4 hPa 0,0 l/m 0,0 km/h (0 Bft) N 0 0 min 0,000 mm 0 W/m 14,5 C 16,0 C 0,0 km/h (0 Bft) 98 %
12.07.2017 01:50 15,9 C 15,9 C 16,1 C 91 % 1012,4 hPa 0,0 l/m 0,0 km/h (0 Bft) N 0 0 min 0,000 mm 0 W/m 14,4 C 15,9 C 0,0 km/h (0 Bft) 97 %
12.07.2017 02:00 15,8 C 15,8 C 15,9 C 91 % 1012,3 hPa 0,0 l/m 0,0 km/h (0 Bft) S-SO 157 0 min 0,000 mm 0 W/m 14,3 C 15,8 C 1,6 km/h (1 Bft) 98 %
12.07.2017 02:10 15,7 C 15,7 C 15,8 C 91 % 1012,3 hPa 0,0 l/m 0,0 km/h (0 Bft) S-SO 157 0 min 0,000 mm 0 W/m 14,2 C 15,7 C 4,8 km/h (1 Bft) 98 %
12.07.2017 02:20 15,6 C 15,6 C 15,7 C 91 % 1012,3 hPa 0,0 l/m 0,0 km/h (0 Bft) S-SO 157 0 min 0,000 mm 0 W/m 14,1 C 15,6 C 1,6 km/h (1 Bft) 97 %
12.07.2017 02:30 15,6 C 15,5 C 15,6 C 91 % 1012,2 hPa 0,0 l/m 0,0 km/h (0 Bft) SO 135 0 min 0,000 mm 0 W/m 14,1 C 15,6 C 4,8 km/h (1 Bft) 98 %
12.07.2017 02:40 15,5 C 15,5 C 15,6 C 91 % 1012,1 hPa 0,0 l/m 0,0 km/h (0 Bft) SO 135 0 min 0,000 mm 0 W/m 14,0 C 15,5 C 4,8 km/h (1 Bft) 97 %
12.07.2017 02:50 15,5 C 15,5 C 15,6 C 91 % 1012,1 hPa 0,0 l/m 0,0 km/h (0 Bft) SO 135 0 min 0,000 mm 0 W/m 14,0 C 15,5 C 1,6 km/h (1 Bft) 98 %
12.07.2017 03:00 15,5 C 15,5 C 15,6 C 91 % 1012,1 hPa 0,0 l/m 0,0 km/h (0 Bft) SO 135 0 min 0,000 mm 0 W/m 14,0 C 15,5 C 8,0 km/h (2 Bft) 97 %
12.07.2017 03:10 15,6 C 15,4 C 15,6 C 91 % 1011,8 hPa 0,0 l/m 0,0 km/h (0 Bft) SO 135 0 min 0,000 mm 0 W/m 14,1 C 15,6 C 1,6 km/h (1 Bft) 98 %
12.07.2017 03:20 15,6 C 15,5 C 15,6 C 91 % 1011,8 hPa 0,0 l/m 0,0 km/h (0 Bft) N 0 0 min 0,000 mm 0 W/m 14,1 C 15,6 C 0,0 km/h (0 Bft) 97 %
12.07.2017 03:30 15,5 C 15,5 C 15,6 C 91 % 1011,8 hPa 0,0 l/m 0,0 km/h (0 Bft) N 0 0 min 0,000 mm 0 W/m 14,0 C 15,5 C 0,0 km/h (0 Bft) 98 %
12.07.2017 03:40 15,6 C 15,5 C 15,6 C 91 % 1011,8 hPa 0,0 l/m 0,0 km/h (0 Bft) N 0 0 min 0,000 mm 0 W/m 14,1 C 15,6 C 0,0 km/h (0 Bft) 98 %
12.07.2017 03:50 15,6 C 15,6 C 15,7 C 91 % 1011,7 hPa 0,0 l/m 0,0 km/h (0 Bft) N 0 0 min 0,000 mm 0 W/m 14,1 C 15,6 C 0,0 km/h (0 Bft) 97 %
12.07.2017 04:00 15,6 C 15,6 C 15,6 C 91 % 1011,7 hPa 0,0 l/m 0,0 km/h (0 Bft) N 0 0 min 0,000 mm 0 W/m 14,1 C 15,6 C 0,0 km/h (0 Bft) 98 %
12.07.2017 04:10 15,4 C 15,4 C 15,6 C 91 % 1011,6 hPa 0,2 l/m 0,0 km/h (0 Bft) N 0 0 min 0,000 mm 0 W/m 13,9 C 15,4 C 0,0 km/h (0 Bft) 97 %
12.07.2017 04:20 15,3 C 15,3 C 15,4 C 91 % 1011,5 hPa 0,0 l/m 0,0 km/h (0 Bft) N 0 0 min 0,000 mm 0 W/m 13,8 C 15,3 C 0,0 km/h (0 Bft) 98 %
12.07.2017 04:30 15,3 C 15,3 C 15,3 C 91 % 1011,6 hPa 0,0 l/m 0,0 km/h (0 Bft) N 0 0 min 0,000 mm 0 W/m 13,8 C 15,3 C 0,0 km/h (0 Bft) 98 %
12.07.2017 04:40 15,2 C 15,2 C 15,3 C 91 % 1011,5 hPa 0,0 l/m 0,0 km/h (0 Bft) N 0 0 min 0,000 mm 0 W/m 13,7 C 15,2 C 0,0 km/h (0 Bft) 98 %
12.07.2017 04:50 15,4 C 15,2 C 15,4 C 91 % 1011,1 hPa 0,0 l/m 0,0 km/h (0 Bft) SO 135 0 min 0,000 mm 0 W/m 13,9 C 15,4 C 1,6 km/h (1 Bft) 96 %
12.07.2017 05:00 15,4 C 15,4 C 15,5 C 91 % 1011,2 hPa 0,0 l/m 0,0 km/h (0 Bft) N 0 0 min 0,000 mm 0 W/m 13,9 C 15,4 C 0,0 km/h (0 Bft) 98 %
12.07.2017 05:10 15,3 C 15,3 C 15,4 C 91 % 1011,1 hPa 0,0 l/m 0,0 km/h (0 Bft) SO 135 0 min 0,000 mm 0 W/m 13,8 C 15,3 C 1,6 km/h (1 Bft) 98 %
12.07.2017 05:20 15,4 C 15,3 C 15,4 C 91 % 1011,0 hPa 0,0 l/m 0,0 km/h (0 Bft) SO 135 0 min 0,000 mm 0 W/m 13,9 C 15,4 C 3,2 km/h (1 Bft) 97 %
12.07.2017 05:30 15,4 C 15,4 C 15,4 C 91 % 1011,0 hPa 0,0 l/m 0,0 km/h (0 Bft) SO 135 0 min 0,000 mm 0 W/m 13,9 C 15,4 C 1,6 km/h (1 Bft) 98 %
12.07.2017 05:40 15,4 C 15,4 C 15,4 C 91 % 1011,1 hPa 0,0 l/m 0,0 km/h (0 Bft) SO 135 0 min 0,000 mm 0 W/m 13,9 C 15,4 C 4,8 km/h (1 Bft) 96 %
12.07.2017 05:50 15,3 C 15,3 C 15,4 C 91 % 1011,0 hPa 0,0 l/m 0,0 km/h (0 Bft) N 0 0 min 0,000 mm 7 W/m 13,8 C 15,3 C 0,0 km/h (0 Bft) 97 %
12.07.2017 06:00 15,3 C 15,3 C 15,4 C 91 % 1011,0 hPa 0,0 l/m 0,0 km/h (0 Bft) N 0 0 min 0,000 mm 21 W/m 13,8 C 15,3 C 0,0 km/h (0 Bft) 98 %
12.07.2017 06:10 15,4 C 15,3 C 15,4 C 91 % 1011,1 hPa 0,0 l/m 0,0 km/h (0 Bft) SO 135 0 min 0,000 mm 25 W/m 13,9 C 15,4 C 1,6 km/h (1 Bft) 97 %
12.07.2017 06:20 15,4 C 15,4 C 15,4 C 91 % 1011,0 hPa 0,0 l/m 0,0 km/h (0 Bft) S-SO 157 0 min 0,000 mm 26 W/m 13,9 C 15,4 C 4,8 km/h (1 Bft) 98 %
12.07.2017 06:30 15,6 C 15,4 C 15,6 C 91 % 1010,9 hPa 0,0 l/m 1,6 km/h (1 Bft) SO 135 0 min 0,000 mm 26 W/m 14,1 C 15,6 C 4,8 km/h (1 Bft) 97 %
12.07.2017 06:40 15,7 C 15,6 C 15,7 C 91 % 1010,9 hPa 0,0 l/m 1,6 km/h (1 Bft) S-SO 157 0 min 0,000 mm 21 W/m 14,2 C 15,7 C 6,4 km/h (2 Bft) 98 %
12.07.2017 06:50 15,8 C 15,7 C 15,8 C 91 % 1010,6 hPa 0,0 l/m 0,0 km/h (0 Bft) S-SO 157 0 min 0,000 mm 19 W/m 14,3 C 15,8 C 1,6 km/h (1 Bft) 98 %
12.07.2017 07:00 15,9 C 15,8 C 15,9 C 91 % 1010,5 hPa 0,0 l/m 0,0 km/h (0 Bft) SO 135 0 min 0,000 mm 32 W/m 14,4 C 15,9 C 1,6 km/h (1 Bft) 98 %
12.07.2017 07:10 16,0 C 15,9 C 16,0 C 91 % 1010,5 hPa 0,0 l/m 0,0 km/h (0 Bft) SO 135 0 min 0,000 mm 46 W/m 14,5 C 16,0 C 4,8 km/h (1 Bft) 98 %
12.07.2017 07:20 16,1 C 16,0 C 16,1 C 91 % 1010,5 hPa 0,0 l/m 1,6 km/h (1 Bft) SO 135 0 min 0,000 mm 67 W/m 14,6 C 16,1 C 6,4 km/h (2 Bft) 98 %
12.07.2017 07:30 16,3 C 16,1 C 16,3 C 91 % 1010,5 hPa 0,0 l/m 0,0 km/h (0 Bft) SO 135 0 min 0,000 mm 98 W/m 14,8 C 16,3 C 1,6 km/h (1 Bft) 98 %
12.07.2017 07:40 16,5 C 16,3 C 16,5 C 91 % 1010,4 hPa 0,0 l/m 0,0 km/h (0 Bft) SO 135 0 min 0,000 mm 109 W/m 15,0 C 16,5 C 1,6 km/h (1 Bft) 99 %
12.07.2017 07:50 16,7 C 16,5 C 16,7 C 91 % 1010,4 hPa 0,0 l/m 3,2 km/h (1 Bft) S-SO 157 0 min 0,000 mm 105 W/m 15,2 C 16,7 C 9,7 km/h (2 Bft) 98 %
12.07.2017 08:00 16,8 C 16,7 C 16,8 C 91 % 1010,5 hPa 0,0 l/m 0,0 km/h (0 Bft) S-SO 157 0 min 0,051 mm 74 W/m 15,3 C 16,8 C 1,6 km/h (1 Bft) 87 %
12.07.2017 08:10 16,9 C 16,8 C 16,9 C 91 % 1010,4 hPa 0,0 l/m 1,6 km/h (1 Bft) S-SO 157 0 min 0,000 mm 132 W/m 15,4 C 16,9 C 9,7 km/h (2 Bft) 98 %
12.07.2017 08:20 17,0 C 16,9 C 17,0 C 91 % 1010,3 hPa 0,0 l/m 3,2 km/h (1 Bft) S-SO 157 0 min 0,000 mm 130 W/m 15,5 C 17,0 C 9,7 km/h (2 Bft) 97 %
12.07.2017 08:30 17,1 C 17,0 C 17,1 C 91 % 1010,2 hPa 0,0 l/m 4,8 km/h (1 Bft) S-SO 157 0 min 0,000 mm 121 W/m 15,6 C 17,1 C 11,3 km/h (2 Bft) 98 %
12.07.2017 08:40 17,3 C 17,1 C 17,3 C 90 % 1010,2 hPa 0,0 l/m 4,8 km/h (1 Bft) S-SO 157 0 min 0,000 mm 113 W/m 15,6 C 17,3 C 11,3 km/h (2 Bft) 98 %
12.07.2017 08:50 17,4 C 17,3 C 17,4 C 91 % 1010,1 hPa 0,0 l/m 4,8 km/h (1 Bft) S-SO 157 0 min 0,000 mm 121 W/m 15,9 C 17,4 C 11,3 km/h (2 Bft) 98 %
12.07.2017 09:00 17,5 C 17,4 C 17,5 C 90 % 1010,0 hPa 0,0 l/m 4,8 km/h (1 Bft) S-SO 157 0 min 0,076 mm 132 W/m 15,8 C 17,5 C 11,3 km/h (2 Bft) 98 %
12.07.2017 09:10 17,7 C 17,5 C 17,7 C 90 % 1010,0 hPa 0,0 l/m 6,4 km/h (2 Bft) S-SO 157 0 min 0,000 mm 151 W/m 16,0 C 17,7 C 17,7 km/h (3 Bft) 97 %
12.07.2017 09:20 17,8 C 17,7 C 17,8 C 90 % 1009,8 hPa 0,0 l/m 6,4 km/h (2 Bft) S-SO 157 0 min 0,000 mm 144 W/m 16,1 C 17,8 C 17,7 km/h (3 Bft) 97 %
12.07.2017 09:30 18,1 C 17,9 C 18,1 C 89 % 1009,7 hPa 0,0 l/m 8,0 km/h (2 Bft) S-SO 157 10 min 0,000 mm 183 W/m 16,3 C 17,4 C 19,3 km/h (3 Bft) 98 %
12.07.2017 09:40 18,4 C 18,2 C 18,4 C 89 % 1009,6 hPa 0,0 l/m 6,4 km/h (2 Bft) S-SO 157 10 min 0,000 mm 188 W/m 16,6 C 18,4 C 16,1 km/h (3 Bft) 98 %
12.07.2017 09:50 18,6 C 18,4 C 18,6 C 88 % 1009,6 hPa 0,0 l/m 6,4 km/h (2 Bft) S-SO 157 10 min 0,000 mm 162 W/m 16,6 C 18,6 C 16,1 km/h (3 Bft) 97 %
12.07.2017 10:00 18,7 C 18,6 C 18,7 C 89 % 1009,6 hPa 0,0 l/m 6,4 km/h (2 Bft) S-SO 157 10 min 0,102 mm 178 W/m 16,8 C 18,7 C 14,5 km/h (3 Bft) 98 %
12.07.2017 10:10 18,7 C 18,7 C 18,7 C 88 % 1009,5 hPa 0,0 l/m 4,8 km/h (1 Bft) S-SO 157 0 min 0,000 mm 144 W/m 16,7 C 18,7 C 11,3 km/h (2 Bft) 98 %
12.07.2017 10:20 18,8 C 18,7 C 18,8 C 87 % 1009,3 hPa 0,0 l/m 6,4 km/h (2 Bft) S-SO 157 0 min 0,000 mm 135 W/m 16,6 C 18,8 C 14,5 km/h (3 Bft) 98 %
12.07.2017 10:30 19,0 C 18,8 C 19,0 C 87 % 1009,2 hPa 0,0 l/m 6,4 km/h (2 Bft) S-SO 157 10 min 0,000 mm 276 W/m 16,8 C 19,0 C 16,1 km/h (3 Bft) 98 %
12.07.2017 10:40 19,4 C 19,0 C 19,4 C 86 % 1009,1 hPa 0,0 l/m 8,0 km/h (2 Bft) S-SO 157 10 min 0,000 mm 332 W/m 17,0 C 18,7 C 16,1 km/h (3 Bft) 97 %
12.07.2017 10:50 20,0 C 19,4 C 20,0 C 84 % 1009,2 hPa 0,0 l/m 9,7 km/h (2 Bft) S 180 10 min 0,000 mm 378 W/m 17,2 C 18,7 C 20,9 km/h (4 Bft) 99 %
12.07.2017 11:00 20,2 C 20,0 C 20,2 C 81 % 1009,1 hPa 0,0 l/m 9,7 km/h (2 Bft) S-SO 157 10 min 0,127 mm 251 W/m 16,8 C 19,0 C 20,9 km/h (4 Bft) 99 %
12.07.2017 11:10 20,1 C 20,1 C 20,2 C 79 % 1009,1 hPa 0,0 l/m 16,1 km/h (3 Bft) S-SW 202 10 min 0,000 mm 216 W/m 16,3 C 17,1 C 33,8 km/h (5 Bft) 99 %
12.07.2017 11:20 20,1 C 20,1 C 20,2 C 77 % 1009,0 hPa 0,0 l/m 16,1 km/h (3 Bft) SW 225 10 min 0,000 mm 272 W/m 15,9 C 17,1 C 33,8 km/h (5 Bft) 98 %
12.07.2017 11:30 20,3 C 20,1 C 20,3 C 74 % 1008,9 hPa 0,0 l/m 17,7 km/h (3 Bft) S-SW 202 10 min 0,000 mm 311 W/m 15,5 C 17,0 C 33,8 km/h (5 Bft) 98 %
12.07.2017 11:40 20,2 C 20,2 C 20,3 C 75 % 1009,1 hPa 0,0 l/m 16,1 km/h (3 Bft) S-SW 202 10 min 0,000 mm 155 W/m 15,6 C 17,2 C 33,8 km/h (5 Bft) 99 %
12.07.2017 11:50 19,9 C 19,9 C 20,2 C 75 % 1009,3 hPa 0,0 l/m 19,3 km/h (3 Bft) S-SW 202 10 min 0,000 mm 163 W/m 15,3 C 16,2 C 41,8 km/h (6 Bft) 100 %
12.07.2017 12:00 19,7 C 19,7 C 19,9 C 76 % 1009,5 hPa 0,0 l/m 14,5 km/h (3 Bft) SW 225 0 min 0,152 mm 120 W/m 15,3 C 17,0 C 30,6 km/h (5 Bft) 100 %
12.07.2017 12:10 19,2 C 19,2 C 19,7 C 80 % 1009,4 hPa 0,0 l/m 12,9 km/h (3 Bft) SW 225 0 min 0,000 mm 125 W/m 15,7 C 16,8 C 30,6 km/h (5 Bft) 99 %
12.07.2017 12:20 18,8 C 18,8 C 19,2 C 83 % 1009,3 hPa 0,0 l/m 4,8 km/h (1 Bft) SW 225 0 min 0,000 mm 90 W/m 15,8 C 18,8 C 17,7 km/h (3 Bft) 99 %
12.07.2017 12:30 18,6 C 18,6 C 18,8 C 84 % 1009,2 hPa 0,0 l/m 1,6 km/h (1 Bft) S-SW 202 0 min 0,000 mm 91 W/m 15,8 C 18,6 C 17,7 km/h (3 Bft) 100 %
12.07.2017 12:40 18,6 C 18,6 C 18,6 C 86 % 1009,2 hPa 0,0 l/m 3,2 km/h (1 Bft) S-SW 202 10 min 0,000 mm 153 W/m 16,2 C 18,6 C 19,3 km/h (3 Bft) 100 %
12.07.2017 12:50 18,4 C 18,4 C 18,6 C 86 % 1009,2 hPa 0,0 l/m 3,2 km/h (1 Bft) S-SW 202 0 min 0,000 mm 107 W/m 16,0 C 18,4 C 19,3 km/h (3 Bft) 100 %
12.07.2017 13:00 18,3 C 18,3 C 18,4 C 87 % 1009,2 hPa 0,2 l/m 11,3 km/h (2 Bft) S-SW 202 0 min 0,051 mm 111 W/m 16,1 C 16,3 C 35,4 km/h (5 Bft) 100 %
12.07.2017 13:10 18,1 C 18,1 C 18,3 C 87 % 1009,2 hPa 0,0 l/m 9,7 km/h (2 Bft) S-SW 202 0 min 0,000 mm 83 W/m 15,9 C 16,7 C 27,4 km/h (4 Bft) 100 %
12.07.2017 13:20 18,2 C 18,1 C 18,2 C 88 % 1009,4 hPa 0,0 l/m 4,8 km/h (1 Bft) S-SW 202 10 min 0,000 mm 169 W/m 16,2 C 18,2 C 32,2 km/h (5 Bft) 100 %
12.07.2017 13:30 18,0 C 18,0 C 18,2 C 89 % 1009,5 hPa 0,6 l/m 14,5 km/h (3 Bft) SW 225 10 min 0,000 mm 156 W/m 16,2 C 15,0 C 38,6 km/h (5 Bft) 100 %
12.07.2017 13:40 17,9 C 17,9 C 18,0 C 90 % 1009,9 hPa 0,2 l/m 4,8 km/h (1 Bft) W-SW 247 10 min 0,000 mm 163 W/m 16,2 C 17,9 C 19,3 km/h (3 Bft) 100 %
12.07.2017 13:50 17,8 C 17,8 C 17,9 C 90 % 1009,8 hPa 0,0 l/m 3,2 km/h (1 Bft) W-SW 247 0 min 0,000 mm 135 W/m 16,1 C 17,8 C 17,7 km/h (3 Bft) 100 %
12.07.2017 14:00 17,8 C 17,7 C 17,8 C 90 % 1009,9 hPa 0,0 l/m 3,2 km/h (1 Bft) W-SW 247 0 min 0,076 mm 151 W/m 16,1 C 17,8 C 16,1 km/h (3 Bft) 100 %
12.07.2017 14:10 17,7 C 17,7 C 17,8 C 90 % 1009,9 hPa 0,0 l/m 8,0 km/h (2 Bft) SW 225 10 min 0,000 mm 227 W/m 16,0 C 16,9 C 25,7 km/h (4 Bft) 100 %
12.07.2017 14:20 17,8 C 17,7 C 17,8 C 91 % 1009,9 hPa 0,0 l/m 11,3 km/h (2 Bft) W 270 10 min 0,000 mm 251 W/m 16,3 C 15,7 C 29,0 km/h (5 Bft) 100 %
12.07.2017 14:30 18,0 C 17,8 C 18,0 C 90 % 1009,9 hPa 0,0 l/m 11,3 km/h (2 Bft) SW 225 10 min 0,000 mm 271 W/m 16,3 C 16,0 C 30,6 km/h (5 Bft) 100 %
12.07.2017 14:40 17,9 C 17,9 C 18,0 C 90 % 1010,1 hPa 0,0 l/m 11,3 km/h (2 Bft) SW 225 10 min 0,000 mm 206 W/m 16,2 C 15,8 C 27,4 km/h (4 Bft) 100 %
12.07.2017 14:50 17,9 C 17,8 C 17,9 C 90 % 1010,1 hPa 0,0 l/m 17,7 km/h (3 Bft) SW 225 10 min 0,000 mm 290 W/m 16,2 C 14,0 C 37,0 km/h (5 Bft) 100 %
12.07.2017 15:00 18,1 C 17,9 C 18,1 C 91 % 1010,1 hPa 0,0 l/m 11,3 km/h (2 Bft) W-SW 247 10 min 0,127 mm 360 W/m 16,6 C 16,1 C 30,6 km/h (5 Bft) 100 %
12.07.2017 15:10 18,1 C 18,1 C 18,1 C 90 % 1010,2 hPa 0,0 l/m 14,5 km/h (3 Bft) SW 225 10 min 0,000 mm 357 W/m 16,4 C 15,1 C 35,4 km/h (5 Bft) 100 %
12.07.2017 15:20 18,2 C 18,1 C 18,3 C 90 % 1010,3 hPa 0,0 l/m 14,5 km/h (3 Bft) W-SW 247 10 min 0,000 mm 399 W/m 16,5 C 15,2 C 37,0 km/h (5 Bft) 100 %
12.07.2017 15:30 18,3 C 18,2 C 18,3 C 90 % 1010,1 hPa 0,0 l/m 12,9 km/h (3 Bft) W-SW 247 10 min 0,000 mm 295 W/m 16,6 C 15,8 C 35,4 km/h (5 Bft) 100 %
12.07.2017 15:40 18,5 C 18,3 C 18,5 C 90 % 1010,1 hPa 0,2 l/m 14,5 km/h (3 Bft) W-SW 247 10 min 0,000 mm 390 W/m 16,8 C 15,6 C 38,6 km/h (5 Bft) 100 %
12.07.2017 15:50 18,8 C 18,5 C 18,8 C 90 % 1010,1 hPa 0,0 l/m 9,7 km/h (2 Bft) SW 225 10 min 0,000 mm 330 W/m 17,1 C 17,4 C 30,6 km/h (5 Bft) 100 %
12.07.2017 16:00 18,9 C 18,8 C 18,9 C 89 % 1010,2 hPa 0,0 l/m 6,4 km/h (2 Bft) W-SW 247 10 min 0,178 mm 279 W/m 17,0 C 18,9 C 25,7 km/h (4 Bft) 100 %
12.07.2017 16:10 19,5 C 18,9 C 19,5 C 88 % 1010,2 hPa 0,0 l/m 12,9 km/h (3 Bft) W 270 10 min 0,000 mm 861 W/m 17,5 C 17,2 C 32,2 km/h (5 Bft) 99 %
12.07.2017 16:20 19,8 C 19,5 C 19,8 C 86 % 1010,4 hPa 0,0 l/m 11,3 km/h (2 Bft) W-SW 247 10 min 0,000 mm 343 W/m 17,4 C 18,0 C 32,2 km/h (5 Bft) 98 %
12.07.2017 16:30 19,6 C 19,6 C 19,8 C 85 % 1010,3 hPa 0,0 l/m 14,5 km/h (3 Bft) W 270 0 min 0,000 mm 91 W/m 17,0 C 16,9 C 40,2 km/h (6 Bft) 100 %
12.07.2017 16:40 19,3 C 19,3 C 19,8 C 87 % 1010,3 hPa 0,2 l/m 7,1 km/h (2 Bft) W 262 10 min 0,000 mm 155 W/m 17,1 C 19,0 C 20,9 km/h (4 Bft) 98 %
12.07.2017 16:50 18,9 C 18,9 C 19,3 C 89 % 1010,4 hPa 0,2 l/m 7,4 km/h (2 Bft) W-SW 240 0 min 0,000 mm 105 W/m 17,0 C 18,5 C 22,5 km/h (4 Bft) 98 %
12.07.2017 17:00 19,0 C 18,9 C 19,0 C 90 % 1010,6 hPa 0,0 l/m 4,8 km/h (1 Bft) S-SW 201 10 min 0,000 mm 265 W/m 17,3 C 19,0 C 25,7 km/h (4 Bft) 98 %
12.07.2017 17:10 19,0 C 19,0 C 19,1 C 89 % 1010,6 hPa 0,0 l/m 11,9 km/h (2 Bft) W 264 0 min 0,152 mm 70 W/m 17,1 C 16,9 C 35,4 km/h (5 Bft) 97 %
12.07.2017 17:20 19,0 C 18,9 C 19,0 C 90 % 1010,5 hPa 0,0 l/m 10,4 km/h (2 Bft) W-SW 258 10 min 0,000 mm 302 W/m 17,3 C 17,4 C 29,0 km/h (5 Bft) 97 %
12.07.2017 17:30 19,4 C 19,0 C 19,4 C 90 % 1010,4 hPa 0,0 l/m 6,3 km/h (2 Bft) S-SW 195 0 min 0,000 mm 105 W/m 17,7 C 19,4 C 24,1 km/h (4 Bft) 97 %
12.07.2017 17:40 19,5 C 19,4 C 19,6 C 89 % 1010,4 hPa 0,0 l/m 9,6 km/h (2 Bft) W-SW 238 0 min 0,000 mm 135 W/m 17,6 C 18,2 C 27,4 km/h (4 Bft) 97 %
12.07.2017 17:50 19,4 C 19,4 C 19,5 C 89 % 1010,2 hPa 0,0 l/m 7,9 km/h (2 Bft) SW 221 0 min 0,000 mm 95 W/m 17,5 C 18,8 C 27,4 km/h (4 Bft) 98 %
12.07.2017 18:00 19,2 C 19,2 C 19,4 C 89 % 1010,3 hPa 0,0 l/m 13,3 km/h (3 Bft) W-SW 244 10 min 0,127 mm 155 W/m 17,3 C 16,7 C 38,6 km/h (5 Bft) 97 %
12.07.2017 18:10 19,3 C 19,2 C 19,3 C 89 % 1010,3 hPa 0,0 l/m 8,0 km/h (2 Bft) S-SW 208 10 min 0,000 mm 158 W/m 17,4 C 18,6 C 24,1 km/h (4 Bft) 98 %
12.07.2017 18:20 19,5 C 19,3 C 19,5 C 89 % 1010,3 hPa 0,0 l/m 12,5 km/h (3 Bft) W-SW 251 10 min 0,000 mm 171 W/m 17,6 C 17,3 C 29,0 km/h (5 Bft) 97 %
12.07.2017 18:30 19,7 C 19,5 C 19,7 C 87 % 1010,4 hPa 0,0 l/m 17,2 km/h (3 Bft) S-SW 198 0 min 0,000 mm 111 W/m 17,5 C 16,4 C 43,5 km/h (6 Bft) 98 %
12.07.2017 18:40 19,9 C 19,7 C 19,9 C 85 % 1010,5 hPa 0,0 l/m 16,0 km/h (3 Bft) W-SW 255 0 min 0,000 mm 58 W/m 17,3 C 16,9 C 37,0 km/h (5 Bft) 97 %
12.07.2017 18:50 20,3 C 19,9 C 20,3 C 85 % 1010,8 hPa 0,0 l/m 13,7 km/h (3 Bft) W-SW 238 0 min 0,000 mm 56 W/m 17,7 C 17,9 C 40,2 km/h (6 Bft) 98 %
12.07.2017 19:00 20,3 C 20,3 C 20,3 C 84 % 1011,0 hPa 0,0 l/m 15,5 km/h (3 Bft) SW 221 0 min 0,102 mm 76 W/m 17,5 C 17,5 C 32,2 km/h (5 Bft) 97 %
12.07.2017 19:10 20,3 C 20,3 C 20,4 C 83 % 1011,1 hPa 0,0 l/m 12,4 km/h (3 Bft) W-NW 296 0 min 0,000 mm 25 W/m 17,3 C 18,3 C 32,2 km/h (5 Bft) 97 %
12.07.2017 19:20 19,1 C 19,1 C 20,3 C 83 % 1012,3 hPa 3,0 l/m 21,5 km/h (4 Bft) NW 319 0 min 0,000 mm 130 W/m 16,1 C 14,8 C 54,7 km/h (7 Bft) 98 %
12.07.2017 19:30 17,8 C 17,8 C 19,1 C 87 % 1012,7 hPa 0,0 l/m 15,4 km/h (3 Bft) NW 317 0 min 0,000 mm 81 W/m 15,6 C 14,5 C 37,0 km/h (5 Bft) 97 %
12.07.2017 19:40 16,8 C 16,8 C 17,8 C 88 % 1012,8 hPa 0,0 l/m 17,3 km/h (3 Bft) NW 321 0 min 0,000 mm 51 W/m 14,8 C 12,7 C 37,0 km/h (5 Bft) 98 %
12.07.2017 19:50 16,6 C 16,6 C 16,8 C 89 % 1013,1 hPa 0,0 l/m 10,5 km/h (2 Bft) NW 315 0 min 0,000 mm 60 W/m 14,8 C 14,7 C 22,5 km/h (4 Bft) 97 %
12.07.2017 20:00 16,2 C 16,2 C 16,6 C 90 % 1013,4 hPa 0,0 l/m 7,6 km/h (2 Bft) N-NW 333 0 min 0,000 mm 39 W/m 14,6 C 15,6 C 24,1 km/h (4 Bft) 97 %
12.07.2017 20:10 16,1 C 16,1 C 16,2 C 90 % 1013,7 hPa 0,0 l/m 5,4 km/h (1 Bft) N-NW 331 0 min 0,076 mm 26 W/m 14,5 C 16,1 C 17,7 km/h (3 Bft) 97 %
12.07.2017 20:20 15,9 C 15,9 C 16,1 C 90 % 1014,0 hPa 0,0 l/m 5,8 km/h (2 Bft) NW 319 0 min 0,000 mm 25 W/m 14,3 C 15,9 C 16,1 km/h (3 Bft) 98 %
12.07.2017 20:30 15,7 C 15,7 C 15,9 C 90 % 1014,1 hPa 0,0 l/m 8,2 km/h (2 Bft) NW 314 0 min 0,000 mm 39 W/m 14,1 C 14,7 C 16,1 km/h (3 Bft) 97 %
12.07.2017 20:40 15,8 C 15,7 C 15,8 C 90 % 1014,3 hPa 0,0 l/m 3,2 km/h (1 Bft) NW 325 0 min 0,000 mm 28 W/m 14,2 C 15,8 C 14,5 km/h (3 Bft) 98 %
12.07.2017 20:50 15,7 C 15,7 C 15,8 C 90 % 1014,7 hPa 0,0 l/m 0,0 km/h (0 Bft) NW 325 0 min 0,000 mm 19 W/m 14,1 C 15,7 C 0,0 km/h (0 Bft) 97 %
12.07.2017 21:00 15,6 C 15,6 C 15,7 C 90 % 1015,0 hPa 0,0 l/m 0,0 km/h (0 Bft) NW 325 0 min 0,000 mm 14 W/m 14,0 C 15,6 C 0,0 km/h (0 Bft) 97 %
12.07.2017 21:10 15,3 C 15,3 C 15,6 C 90 % 1015,2 hPa 0,0 l/m 0,0 km/h (0 Bft) N 0 0 min 0,000 mm 14 W/m 13,7 C 15,3 C 0,0 km/h (0 Bft) 100 %
12.07.2017 21:20 15,1 C 15,1 C 15,3 C 90 % 1015,5 hPa 0,0 l/m 0,0 km/h (0 Bft) W 270 0 min 0,000 mm 7 W/m 13,5 C 15,1 C 1,6 km/h (1 Bft) 100 %
12.07.2017 21:30 15,1 C 15,1 C 15,1 C 90 % 1015,8 hPa 0,0 l/m 1,6 km/h (1 Bft) W 270 0 min 0,000 mm 0 W/m 13,5 C 15,1 C 4,8 km/h (1 Bft) 100 %
12.07.2017 21:40 14,9 C 14,9 C 15,1 C 91 % 1016,1 hPa 0,0 l/m 1,6 km/h (1 Bft) W 270 0 min 0,000 mm 0 W/m 13,4 C 14,9 C 4,8 km/h (1 Bft) 100 %
12.07.2017 21:50 14,8 C 14,8 C 14,9 C 91 % 1016,5 hPa 0,0 l/m 3,2 km/h (1 Bft) W 270 0 min 0,000 mm 0 W/m 13,3 C 14,8 C 8,0 km/h (2 Bft) 100 %
12.07.2017 22:00 14,7 C 14,7 C 14,8 C 91 % 1016,8 hPa 0,0 l/m 1,6 km/h (1 Bft) W 270 0 min 0,000 mm 0 W/m 13,2 C 14,7 C 8,0 km/h (2 Bft) 100 %
12.07.2017 22:10 14,7 C 14,7 C 14,7 C 91 % 1017,0 hPa 0,0 l/m 0,0 km/h (0 Bft) W 270 0 min 0,000 mm 0 W/m 13,2 C 14,7 C 6,4 km/h (2 Bft) 100 %
12.07.2017 22:20 14,7 C 14,7 C 14,7 C 91 % 1017,0 hPa 0,0 l/m 4,8 km/h (1 Bft) W-NW 292 0 min 0,000 mm 0 W/m 13,2 C 14,7 C 14,5 km/h (3 Bft) 100 %
12.07.2017 22:30 14,7 C 14,7 C 14,7 C 91 % 1017,2 hPa 0,0 l/m 8,0 km/h (2 Bft) W-NW 292 0 min 0,000 mm 0 W/m 13,2 C 13,8 C 19,3 km/h (3 Bft) 100 %
12.07.2017 22:40 14,7 C 14,7 C 14,7 C 91 % 1017,3 hPa 0,0 l/m 4,8 km/h (1 Bft) N-NW 337 0 min 0,000 mm 0 W/m 13,2 C 14,7 C 12,9 km/h (3 Bft) 100 %
12.07.2017 22:50 14,7 C 14,6 C 14,7 C 91 % 1017,3 hPa 0,0 l/m 6,4 km/h (2 Bft) N-NW 337 0 min 0,000 mm 0 W/m 13,2 C 14,7 C 11,3 km/h (2 Bft) 100 %
12.07.2017 23:00 14,6 C 14,6 C 14,7 C 91 % 1017,5 hPa 0,0 l/m 8,0 km/h (2 Bft) NW 315 0 min 0,000 mm 0 W/m 13,1 C 13,7 C 16,1 km/h (3 Bft) 100 %
12.07.2017 23:10 14,4 C 14,4 C 14,6 C 91 % 1017,6 hPa 0,0 l/m 6,4 km/h (2 Bft) NW 315 0 min 0,000 mm 0 W/m 12,9 C 14,4 C 16,1 km/h (3 Bft) 100 %
12.07.2017 23:20 14,3 C 14,3 C 14,4 C 91 % 1017,8 hPa 0,0 l/m 6,4 km/h (2 Bft) NW 315 0 min 0,000 mm 0 W/m 12,8 C 14,3 C 16,1 km/h (3 Bft) 100 %
12.07.2017 23:30 14,1 C 14,1 C 14,3 C 91 % 1018,0 hPa 0,0 l/m 1,6 km/h (1 Bft) N-NW 337 0 min 0,000 mm 0 W/m 12,7 C 14,1 C 16,1 km/h (3 Bft) 100 %
12.07.2017 23:40 13,9 C 13,9 C 14,1 C 91 % 1018,2 hPa 0,0 l/m 4,8 km/h (1 Bft) N-NW 337 0 min 0,000 mm 0 W/m 12,5 C 13,9 C 16,1 km/h (3 Bft) 100 %
12.07.2017 23:50 13,7 C 13,7 C 13,9 C 91 % 1018,4 hPa 0,0 l/m 4,8 km/h (1 Bft) N-NW 337 0 min 0,000 mm 0 W/m 12,3 C 13,7 C 9,7 km/h (2 Bft) 100 %
_ Min-Zeit 23:50 23:50 23:50 11:30 11:30 - 00:00 - - - - - 23:50 19:40 00:00 08:00
Minimum _ 13,7 C 13,7 C 13,9 C 74 % 1008,9 hPa - 0,0 km/h (0 Bft) - - - - - 12,3 C 12,7 C 0,0 km/h (0 Bft) 87 %
_ Max-Zeit 19:10 19:00 19:10 01:00 23:50 19:20 19:20 - - 09:30 16:00 16:10 17:30 17:30 19:20 12:30
Maximum _ 20,4 C 20,3 C 20,4 C 91 % 1018,4 hPa 3,0 l/m 21,5 km/h
NW (4 Bft)
- - 10 min 0,178 mm 861 W/m 17,7 C 19,4 C 54,7 km/h
N-NW (7 Bft)
100 %
Durchschnitt _ 17,1 C 17,0 C 17,2 C 89 % 1011,6 hPa #5,0 l/m 5,6 km/h (1 Bft) S-SO - #6:10 h #1,397 mm 152 W/m 15,2 C 16,4 C 15,7 km/h (3 Bft) 98 %
PRIVATE WETTERSTATION BILLIGHEIM-ALLFELD - www.neckar-odenwald-wetter.de - Holger Sonntag